Main page
METAR-TAF:

METAR-TAF

Airports :

Padre Aldamiz International Airport

Puerto Maldonado, Peru

latitude: 12-38S, longitude: 069-12W, elevation: 265 m

Current weather observation

The report was made 53 minutes ago, at 20:00 UTC
Wind 3 kt from variable directions
Temperature 26°C
Humidity 48%
Pressure 1017 hPa
Visibility 10 km or more
no clouds below 1500 m and no cumulonimbus

METAR: SPTU 162000Z VRB03KT CAVOK 26/14 Q1017 RMK BIRD HAZARD RWY 01/19 PP000

Time: 15:53 (20:53 UTC)

Forecast

The report was made 3 hours and 53 minutes ago, at 17:00 UTC
Forecast valid from 16 at 18 UTC to 17 at 18 UTC
Wind 5 kt from the Southeast
Visibility 10 km or more
no clouds below 1500 m and no cumulonimbus

TAF: SPTU 161700Z 1618/1718 14005KT CAVOK TX27/1620Z TN15/1711Z

Weather observations and forecasts of more than 4000 airports (METAR and TAF reports).

The available stations are represented by yellow and red dots on the map.

Hover mouse over dot to see the name of the station.

Then click to see weather observations and forecasts.

To change the map : click on the green buttons with a black cross to zoom in, on the green button with a dash to zoom out, or on the green arrows for adjacent maps.


METAR-TAF: